createdAt,value
2023-03-05T00:01:26.074Z,5.40
2023-03-05T00:04:20.019Z,5.60
2023-03-05T00:07:17.873Z,5.40
2023-03-05T00:10:13.640Z,5.10
2023-03-05T00:13:09.013Z,4.60
2023-03-05T00:16:05.414Z,5.40
2023-03-05T00:19:00.969Z,4.80
2023-03-05T00:21:54.521Z,5.10
2023-03-05T00:24:51.569Z,5.00
2023-03-05T00:27:45.157Z,5.40
2023-03-05T00:30:38.942Z,4.80
2023-03-05T00:33:32.607Z,4.80
2023-03-05T00:36:26.710Z,4.40
2023-03-05T00:39:21.524Z,4.60
2023-03-05T00:42:15.128Z,4.70
2023-03-05T00:45:11.694Z,4.70
2023-03-05T00:47:47.826Z,4.20
2023-03-05T00:50:41.410Z,4.80
2023-03-05T00:53:35.051Z,4.50
2023-03-05T00:56:29.074Z,4.10
2023-03-05T00:59:22.641Z,3.90
2023-03-05T01:02:16.741Z,4.00
2023-03-05T01:05:14.452Z,4.10
2023-03-05T01:11:00.745Z,3.90
2023-03-05T01:13:54.421Z,3.60
2023-03-05T01:16:48.250Z,3.70
2023-03-05T01:19:41.879Z,3.50
2023-03-05T01:22:35.859Z,4.00
2023-03-05T01:25:29.765Z,3.80
2023-03-05T01:28:23.494Z,3.70
2023-03-05T01:31:17.096Z,3.70
2023-03-05T01:34:10.828Z,3.80
2023-03-05T01:37:04.394Z,3.60
2023-03-05T01:39:57.986Z,3.30
2023-03-05T01:42:57.788Z,3.40
2023-03-05T01:46:32.252Z,3.00
2023-03-05T01:49:28.284Z,3.30
2023-03-05T01:52:24.273Z,3.20
2023-03-05T01:55:22.077Z,3.30
2023-03-05T01:58:16.674Z,3.00
2023-03-05T02:01:10.538Z,3.10
2023-03-05T02:04:05.129Z,3.10
2023-03-05T02:06:59.975Z,3.20
2023-03-05T02:09:53.605Z,2.90
2023-03-05T02:12:49.584Z,2.70
2023-03-05T02:15:44.404Z,2.90
2023-03-05T02:18:38.190Z,2.80
2023-03-05T02:21:42.668Z,2.90
2023-03-05T02:24:40.020Z,2.50
2023-03-05T02:27:35.607Z,2.90
2023-03-05T02:30:31.237Z,2.90
2023-03-05T02:33:25.432Z,2.60
2023-03-05T02:36:19.668Z,3.20
2023-03-05T02:39:13.689Z,3.00
2023-03-05T02:42:07.954Z,2.90
2023-03-05T02:45:01.864Z,2.90
2023-03-05T02:47:55.772Z,2.70
2023-03-05T02:50:50.442Z,2.60
2023-03-05T02:53:43.954Z,2.40
2023-03-05T02:56:38.283Z,2.50
2023-03-05T02:59:31.936Z,2.50
2023-03-05T03:02:25.593Z,2.50
2023-03-05T03:05:19.556Z,2.40
2023-03-05T03:08:13.251Z,2.70
2023-03-05T03:11:14.135Z,2.80
2023-03-05T03:14:07.687Z,2.50
2023-03-05T03:17:02.119Z,2.40
2023-03-05T03:19:55.723Z,2.50
2023-03-05T03:22:50.036Z,2.50
2023-03-05T03:25:43.600Z,2.40
2023-03-05T03:28:37.333Z,2.50
2023-03-05T03:31:31.086Z,2.50
2023-03-05T03:34:24.752Z,2.40
2023-03-05T03:37:18.315Z,2.50
2023-03-05T03:40:14.624Z,2.70
2023-03-05T03:43:08.132Z,2.50
2023-03-05T03:46:01.961Z,2.30
2023-03-05T03:48:55.712Z,2.40
2023-03-05T03:51:50.244Z,2.60
2023-03-05T03:54:43.878Z,2.30
2023-03-05T03:57:37.624Z,2.50
2023-03-05T04:00:31.355Z,2.50
2023-03-05T04:03:24.904Z,2.50
2023-03-05T04:06:19.052Z,2.40
2023-03-05T04:09:13.567Z,2.30
2023-03-05T04:12:07.685Z,2.40
2023-03-05T04:15:01.448Z,2.60
2023-03-05T04:17:55.005Z,2.50
2023-03-05T04:20:48.539Z,2.30
2023-03-05T04:23:42.807Z,2.70
2023-03-05T04:26:36.493Z,2.10
2023-03-05T04:29:30.175Z,2.90
2023-03-05T04:32:28.627Z,2.40
2023-03-05T04:35:22.673Z,2.40
2023-03-05T04:38:16.383Z,2.70
2023-03-05T04:41:10.026Z,2.50
2023-03-05T04:44:03.786Z,2.80
2023-03-05T04:46:57.556Z,2.60
2023-03-05T04:49:51.338Z,3.10
2023-03-05T04:52:46.966Z,2.70
2023-03-05T04:55:40.648Z,2.80
2023-03-05T04:58:34.352Z,2.50
2023-03-05T05:01:27.932Z,2.50
2023-03-05T05:04:21.677Z,2.60
2023-03-05T05:07:15.268Z,2.50
2023-03-05T05:10:11.373Z,2.80
2023-03-05T05:13:05.088Z,2.80
2023-03-05T05:15:59.343Z,2.90
2023-03-05T05:18:52.927Z,3.30
2023-03-05T05:21:46.659Z,2.60
2023-03-05T05:24:25.622Z,3.10
2023-03-05T05:27:19.292Z,3.00
2023-03-05T05:30:15.806Z,2.80
2023-03-05T05:33:09.201Z,3.20
2023-03-05T05:36:05.455Z,3.20
2023-03-05T05:38:59.152Z,3.00
2023-03-05T05:41:55.364Z,2.90
2023-03-05T05:44:49.095Z,2.70
2023-03-05T05:47:42.920Z,3.10
2023-03-05T05:50:36.487Z,2.60
2023-03-05T05:53:30.360Z,2.80
2023-03-05T05:56:24.243Z,2.80
2023-03-05T05:59:17.840Z,2.80
2023-03-05T06:02:12.080Z,3.30
2023-03-05T06:05:06.184Z,3.00
2023-03-05T06:07:59.776Z,2.90
2023-03-05T06:10:59.192Z,3.30
2023-03-05T06:13:53.209Z,2.90
2023-03-05T06:16:46.818Z,2.60
2023-03-05T06:19:40.258Z,3.20
2023-03-05T06:22:36.676Z,2.80
2023-03-05T06:25:30.177Z,3.10
2023-03-05T06:28:24.290Z,3.00
2023-03-05T06:31:22.415Z,2.80
2023-03-05T06:34:16.088Z,3.20
2023-03-05T06:37:09.767Z,2.80
2023-03-05T06:40:03.985Z,2.70
2023-03-05T06:42:57.511Z,3.00
2023-03-05T06:45:51.134Z,2.90
2023-03-05T06:48:45.118Z,3.30
2023-03-05T06:51:42.419Z,3.10
2023-03-05T06:54:37.342Z,3.40
2023-03-05T06:57:30.897Z,3.60
2023-03-05T07:00:29.769Z,3.90
2023-03-05T07:03:23.860Z,3.90
2023-03-05T07:06:18.807Z,3.20
2023-03-05T07:09:16.757Z,3.80
2023-03-05T07:12:12.539Z,3.50
2023-03-05T07:15:07.336Z,4.00
2023-03-05T07:18:00.907Z,3.90
2023-03-05T07:20:55.445Z,3.80
2023-03-05T07:23:39.039Z,3.70
2023-03-05T07:26:34.420Z,3.90
2023-03-05T07:29:28.797Z,4.00
2023-03-05T07:32:22.539Z,4.60
2023-03-05T07:35:16.416Z,3.80
2023-03-05T07:38:10.029Z,3.90
2023-03-05T07:41:09.327Z,3.80
2023-03-05T07:44:03.205Z,3.50
2023-03-05T07:46:56.722Z,4.00
2023-03-05T07:49:50.291Z,4.00
2023-03-05T07:52:43.935Z,3.60
2023-03-05T07:55:42.879Z,3.60
2023-03-05T07:58:36.528Z,3.80
2023-03-05T08:01:31.508Z,3.80
2023-03-05T08:04:25.124Z,3.90
2023-03-05T08:07:19.989Z,3.60
2023-03-05T08:10:15.199Z,3.40
2023-03-05T08:13:09.000Z,3.50
2023-03-05T08:16:07.345Z,3.50
2023-03-05T08:19:01.467Z,3.60
2023-03-05T08:21:55.706Z,3.30
2023-03-05T08:24:50.513Z,3.40
2023-03-05T08:27:46.615Z,3.30
2023-03-05T08:30:41.446Z,3.80
2023-03-05T08:33:32.519Z,7.70
2023-03-05T08:36:27.403Z,3.40
2023-03-05T08:39:21.177Z,2.80
2023-03-05T08:42:15.063Z,2.90
2023-03-05T08:45:11.456Z,2.60
2023-03-05T08:48:05.348Z,3.10
2023-03-05T08:50:59.472Z,3.10
2023-03-05T08:53:53.892Z,2.30
2023-03-05T08:56:47.725Z,2.10
2023-03-05T08:59:41.753Z,2.80
2023-03-05T09:02:35.609Z,2.10
2023-03-05T09:05:30.288Z,2.20
2023-03-05T09:08:24.249Z,2.10
2023-03-05T09:11:18.025Z,1.90
2023-03-05T09:14:12.867Z,2.40
2023-03-05T09:17:06.907Z,2.00
2023-03-05T09:20:00.821Z,2.70
2023-03-05T09:22:54.528Z,2.30
2023-03-05T09:25:48.760Z,2.20
2023-03-05T09:28:42.781Z,1.90
2023-03-05T09:31:37.858Z,1.90
2023-03-05T09:34:31.807Z,2.10
2023-03-05T09:37:25.747Z,2.10
2023-03-05T09:40:23.263Z,2.30
2023-03-05T09:46:38.425Z,2.40
2023-03-05T09:49:50.736Z,2.70
2023-03-05T09:52:51.675Z,2.90
2023-03-05T09:55:51.660Z,2.70
2023-03-05T09:58:47.715Z,3.00
2023-03-05T10:01:45.842Z,3.10
2023-03-05T10:04:47.662Z,3.00
2023-03-05T10:07:45.556Z,3.10
2023-03-05T10:10:44.515Z,3.20
2023-03-05T10:13:44.032Z,3.40
2023-03-05T10:17:07.190Z,2.90
2023-03-05T10:20:36.766Z,3.40
2023-03-05T10:23:52.923Z,3.20
2023-03-05T10:26:59.983Z,3.50
2023-03-05T10:30:13.445Z,3.60
2023-03-05T10:33:22.161Z,3.40
2023-03-05T10:36:48.227Z,3.80
2023-03-05T10:40:13.032Z,3.80
2023-03-05T10:43:21.848Z,4.30
2023-03-05T10:46:22.114Z,3.40
2023-03-05T10:49:22.656Z,4.30
2023-03-05T10:52:24.356Z,4.10
2023-03-05T10:55:23.746Z,3.90
2023-03-05T10:58:19.067Z,4.60
2023-03-05T11:01:26.769Z,4.20
2023-03-05T11:04:36.053Z,4.40
2023-03-05T11:07:42.999Z,4.90
2023-03-05T11:10:36.844Z,6.50
2023-03-05T11:13:32.791Z,7.60
2023-03-05T11:16:30.085Z,6.30
2023-03-05T11:19:29.818Z,7.20
2023-03-05T11:22:27.598Z,6.40
2023-03-05T11:25:22.649Z,7.00
2023-03-05T11:28:32.333Z,6.40
2023-03-05T11:31:30.623Z,6.70
2023-03-05T11:34:36.292Z,6.30
2023-03-05T11:37:33.811Z,6.70
2023-03-05T11:40:50.780Z,6.20
2023-03-05T11:43:46.573Z,5.50
2023-03-05T11:46:52.013Z,5.90
2023-03-05T11:49:51.813Z,5.70
2023-03-05T11:52:52.493Z,6.80
2023-03-05T11:58:49.855Z,6.30
2023-03-05T12:01:48.181Z,6.00
2023-03-05T12:04:42.070Z,5.90
2023-03-05T12:07:45.201Z,6.00
2023-03-05T12:10:39.115Z,6.10
2023-03-05T12:13:41.447Z,6.00
2023-03-05T12:16:43.200Z,6.50
2023-03-05T12:19:51.042Z,6.00
2023-03-05T12:22:47.014Z,5.60
2023-03-05T12:25:51.904Z,5.30
2023-03-05T12:29:02.374Z,6.50
2023-03-05T12:34:57.778Z,6.60
2023-03-05T12:38:25.558Z,7.50
2023-03-05T12:41:46.369Z,6.40
2023-03-05T12:44:40.372Z,7.00
2023-03-05T12:47:34.042Z,7.70
2023-03-05T12:50:59.390Z,6.40
2023-03-05T12:53:56.061Z,5.40
2023-03-05T12:56:49.838Z,5.90
2023-03-05T12:59:51.272Z,5.90
2023-03-05T13:02:47.334Z,5.50
2023-03-05T13:05:49.143Z,6.10
2023-03-05T13:08:43.785Z,5.80
2023-03-05T13:11:40.268Z,5.70
2023-03-05T13:14:41.905Z,6.00
2023-03-05T13:17:41.410Z,5.80
2023-03-05T13:20:42.570Z,5.60
2023-03-05T13:23:38.692Z,5.20
2023-03-05T13:26:37.414Z,7.20
2023-03-05T13:29:31.486Z,8.30
2023-03-05T13:32:30.115Z,12.40
2023-03-05T13:35:23.888Z,14.00
2023-03-05T13:38:27.944Z,17.50
2023-03-05T13:41:27.883Z,16.90
2023-03-05T13:44:25.513Z,17.90
2023-03-05T13:50:29.854Z,18.40
2023-03-05T13:53:28.807Z,22.40
2023-03-05T13:56:24.913Z,24.30
2023-03-05T13:59:25.665Z,24.90
2023-03-05T14:02:23.870Z,26.10
2023-03-05T14:05:20.365Z,24.70
2023-03-05T14:08:23.778Z,21.60
2023-03-05T14:11:20.897Z,24.50
2023-03-05T14:14:21.232Z,22.60
2023-03-05T14:17:37.322Z,19.10
2023-03-05T14:20:32.169Z,20.80
2023-03-05T14:23:42.989Z,23.60
2023-03-05T14:26:41.806Z,22.60
2023-03-05T14:29:36.209Z,23.60
2023-03-05T14:32:35.917Z,29.60
2023-03-05T14:35:32.102Z,35.60
2023-03-05T14:38:34.940Z,37.10
2023-03-05T14:41:41.743Z,40.50
2023-03-05T14:44:35.856Z,38.00
2023-03-05T14:47:31.278Z,38.70
2023-03-05T14:50:28.417Z,37.10
2023-03-05T14:53:26.749Z,38.70
2023-03-05T14:56:27.490Z,35.50
2023-03-05T14:59:22.364Z,37.20
2023-03-05T15:02:22.911Z,35.10
2023-03-05T15:05:17.065Z,35.20
2023-03-05T15:08:16.534Z,33.30
2023-03-05T15:11:11.568Z,33.00
2023-03-05T15:14:05.473Z,34.70
2023-03-05T15:16:59.725Z,31.10
2023-03-05T15:19:53.844Z,30.00
2023-03-05T15:22:47.894Z,29.60
2023-03-05T15:25:42.168Z,30.70
2023-03-05T15:28:40.627Z,32.10
2023-03-05T15:31:38.949Z,28.00
2023-03-05T15:34:34.860Z,28.60
2023-03-05T15:37:28.779Z,25.10
2023-03-05T15:40:23.050Z,26.30
2023-03-05T15:43:19.001Z,25.10
2023-03-05T15:46:13.024Z,23.50
2023-03-05T15:49:09.800Z,25.10
2023-03-05T15:52:03.723Z,21.10
2023-03-05T15:54:57.329Z,21.80
2023-03-05T15:57:53.111Z,22.00
2023-03-05T16:00:47.453Z,21.00
2023-03-05T16:03:41.278Z,19.60
2023-03-05T16:06:36.413Z,18.50
2023-03-05T16:09:33.171Z,17.70
2023-03-05T16:12:32.367Z,18.20
2023-03-05T16:15:27.043Z,17.80
2023-03-05T16:18:21.446Z,17.50
2023-03-05T16:21:15.669Z,17.20
2023-03-05T16:24:10.086Z,16.80
2023-03-05T16:27:04.977Z,16.30
2023-03-05T16:29:58.777Z,16.60
2023-03-05T16:32:53.791Z,15.20
2023-03-05T16:35:49.115Z,15.70
2023-03-05T16:38:42.981Z,13.50
2023-03-05T16:41:36.948Z,13.90
2023-03-05T16:44:31.034Z,14.00
2023-03-05T16:47:24.877Z,12.90
2023-03-05T16:50:18.537Z,13.50
2023-03-05T16:53:13.241Z,13.60
2023-03-05T16:56:10.025Z,12.80
2023-03-05T16:59:05.539Z,12.40
2023-03-05T17:02:00.230Z,12.70
2023-03-05T17:04:55.929Z,11.80
2023-03-05T17:07:50.134Z,12.00
2023-03-05T17:10:44.727Z,10.70
2023-03-05T17:13:38.854Z,11.70
2023-03-05T17:16:32.561Z,10.90
2023-03-05T17:19:26.436Z,11.10
2023-03-05T17:22:20.040Z,11.20
2023-03-05T17:25:14.174Z,9.80
2023-03-05T17:28:08.549Z,10.20
2023-03-05T17:31:02.302Z,9.90
2023-03-05T17:33:56.713Z,9.30
2023-03-05T17:36:50.982Z,9.80
2023-03-05T17:39:44.636Z,8.80
2023-03-05T17:42:38.435Z,9.40
2023-03-05T17:45:32.631Z,8.60
2023-03-05T17:48:27.280Z,9.10
2023-03-05T17:51:21.335Z,8.10
2023-03-05T17:54:14.967Z,8.30
2023-03-05T17:57:09.444Z,7.60
2023-03-05T18:00:03.510Z,8.40
2023-03-05T18:02:59.258Z,7.90
2023-03-05T18:05:53.416Z,7.70
2023-03-05T18:08:47.147Z,8.00
2023-03-05T18:11:40.915Z,7.60
2023-03-05T18:14:34.530Z,7.40
2023-03-05T18:17:28.253Z,8.00
2023-03-05T18:20:30.744Z,7.30
2023-03-05T18:23:24.740Z,7.30
2023-03-05T18:26:18.736Z,7.40
2023-03-05T18:29:12.883Z,7.00
2023-03-05T18:32:07.434Z,7.40
2023-03-05T18:35:01.214Z,6.70
2023-03-05T18:37:55.148Z,7.00
2023-03-05T18:40:51.159Z,7.20
2023-03-05T18:43:44.868Z,6.80
2023-03-05T18:46:38.767Z,6.60
2023-03-05T18:49:32.608Z,6.40
2023-03-05T18:52:26.446Z,6.20
2023-03-05T18:55:22.629Z,5.80
2023-03-05T18:58:17.601Z,6.60
2023-03-05T19:01:11.295Z,6.30
2023-03-05T19:04:05.286Z,6.20
2023-03-05T19:06:58.941Z,6.70
2023-03-05T19:09:58.933Z,5.70
2023-03-05T19:13:40.717Z,6.70
2023-03-05T19:16:24.379Z,6.80
2023-03-05T19:19:24.396Z,7.10
2023-03-05T19:22:18.115Z,7.00
2023-03-05T19:25:14.540Z,6.30
2023-03-05T19:28:11.371Z,6.70
2023-03-05T19:31:05.497Z,6.20
2023-03-05T19:33:59.621Z,7.00
2023-03-05T19:36:53.326Z,6.10
2023-03-05T19:39:47.348Z,6.60
2023-03-05T19:42:41.498Z,6.60
2023-03-05T19:45:37.675Z,6.60
2023-03-05T19:48:31.790Z,6.90
2023-03-05T19:51:27.123Z,6.30
2023-03-05T19:54:22.990Z,6.40
2023-03-05T19:57:16.725Z,7.20
2023-03-05T20:00:13.665Z,6.50
2023-03-05T20:03:07.531Z,6.50
2023-03-05T20:06:01.195Z,6.70
2023-03-05T20:08:55.088Z,6.10
2023-03-05T20:11:49.347Z,6.40
2023-03-05T20:14:42.940Z,6.20
2023-03-05T20:17:36.561Z,6.00
2023-03-05T20:20:31.078Z,6.30
2023-03-05T20:23:25.238Z,6.00
2023-03-05T20:26:19.594Z,6.00
2023-03-05T20:29:17.741Z,6.20
2023-03-05T20:32:11.939Z,6.00
2023-03-05T20:35:06.232Z,5.70
2023-03-05T20:38:25.066Z,5.80
2023-03-05T20:41:21.848Z,5.70
2023-03-05T20:44:17.031Z,5.60
2023-03-05T20:47:42.396Z,5.90
2023-03-05T20:50:36.272Z,6.10
2023-03-05T20:53:30.827Z,6.70
2023-03-05T20:56:24.977Z,5.70
2023-03-05T20:59:18.683Z,5.70
2023-03-05T21:02:13.954Z,5.70
2023-03-05T21:05:09.403Z,5.90
2023-03-05T21:08:05.214Z,5.90
2023-03-05T21:10:59.352Z,5.50
2023-03-05T21:13:53.343Z,5.30
2023-03-05T21:16:47.273Z,5.60
2023-03-05T21:19:42.603Z,5.60
2023-03-05T21:22:36.538Z,5.10
2023-03-05T21:25:32.698Z,4.90
2023-03-05T21:28:26.679Z,5.90
2023-03-05T21:31:23.181Z,5.30
2023-03-05T21:34:18.864Z,5.30
2023-03-05T21:37:12.687Z,5.30
2023-03-05T21:40:08.719Z,5.20
2023-03-05T21:43:03.048Z,5.10
2023-03-05T21:45:57.747Z,5.10
2023-03-05T21:48:51.389Z,5.10
2023-03-05T21:52:22.299Z,5.40
2023-03-05T21:55:19.303Z,5.10
2023-03-05T21:58:13.083Z,5.10
2023-03-05T22:01:07.831Z,5.30
2023-03-05T22:04:01.501Z,5.40
2023-03-05T22:06:55.225Z,4.90
2023-03-05T22:09:48.820Z,5.50
2023-03-05T22:13:13.263Z,5.60
2023-03-05T22:16:09.090Z,5.70
2023-03-05T22:19:03.160Z,6.40
2023-03-05T22:21:57.504Z,5.70
2023-03-05T22:24:51.086Z,6.30
2023-03-05T22:27:45.579Z,6.10
2023-03-05T22:30:44.048Z,5.80
2023-03-05T22:33:37.841Z,5.70
2023-03-05T22:36:31.546Z,5.90
2023-03-05T22:39:25.142Z,6.20
2023-03-05T22:42:19.177Z,8.20
2023-03-05T22:45:17.242Z,6.20
2023-03-05T22:48:12.489Z,6.60
2023-03-05T22:51:06.719Z,6.50
2023-03-05T22:54:00.321Z,6.20
2023-03-05T22:56:54.078Z,6.50
2023-03-05T22:59:49.895Z,6.70
2023-03-05T23:02:43.900Z,6.50
2023-03-05T23:05:39.444Z,6.10
2023-03-05T23:08:33.259Z,5.70
2023-03-05T23:11:27.342Z,6.20
2023-03-05T23:14:20.934Z,7.00
2023-03-05T23:17:14.719Z,5.70
2023-03-05T23:20:12.005Z,5.50
2023-03-05T23:23:07.118Z,6.00
2023-03-05T23:26:01.133Z,5.80
2023-03-05T23:28:55.509Z,5.80
2023-03-05T23:31:49.112Z,5.60
2023-03-05T23:34:43.615Z,5.80
2023-03-05T23:37:37.464Z,4.90
2023-03-05T23:40:35.543Z,5.40
2023-03-05T23:43:30.158Z,5.60
2023-03-05T23:46:23.836Z,5.30
2023-03-05T23:49:17.516Z,5.70
2023-03-05T23:52:12.017Z,5.30
2023-03-05T23:55:06.247Z,5.00
2023-03-05T23:58:00.176Z,5.00
